sensor_id;sensor_type;location;lat;lon;timestamp;pressure;altitude;pressure_sealevel;temperature;humidity
75298;BME280;63896;45.990;18.688;2022-11-20T00:02:09;100258.19;;;4.08;94.42
75298;BME280;63896;45.990;18.688;2022-11-20T00:05:12;100231.19;;;4.00;94.66
75298;BME280;63896;45.990;18.688;2022-11-20T00:08:15;100227.38;;;4.02;95.46
75298;BME280;63896;45.990;18.688;2022-11-20T00:11:20;100248.09;;;3.97;95.39
75298;BME280;63896;45.990;18.688;2022-11-20T00:14:23;100247.75;;;4.00;95.02
75298;BME280;63896;45.990;18.688;2022-11-20T00:17:26;100254.50;;;3.95;95.21
75298;BME280;63896;45.990;18.688;2022-11-20T00:20:29;100250.06;;;3.95;94.82
75298;BME280;63896;45.990;18.688;2022-11-20T00:23:33;100267.94;;;4.00;94.61
75298;BME280;63896;45.990;18.688;2022-11-20T00:26:36;100268.56;;;4.02;94.31
75298;BME280;63896;45.990;18.688;2022-11-20T00:29:39;100248.31;;;3.88;94.52
75298;BME280;63896;45.990;18.688;2022-11-20T00:32:42;100227.84;;;3.83;94.56
75298;BME280;63896;45.990;18.688;2022-11-20T00:35:44;100226.56;;;3.79;94.75
75298;BME280;63896;45.990;18.688;2022-11-20T00:38:54;100229.84;;;3.81;94.29
75298;BME280;63896;45.990;18.688;2022-11-20T00:41:57;100224.25;;;3.84;94.78
75298;BME280;63896;45.990;18.688;2022-11-20T00:45:00;100224.47;;;3.74;94.62
75298;BME280;63896;45.990;18.688;2022-11-20T00:48:03;100234.16;;;3.74;94.55
75298;BME280;63896;45.990;18.688;2022-11-20T00:51:06;100243.34;;;3.70;94.71
75298;BME280;63896;45.990;18.688;2022-11-20T00:54:09;100256.78;;;3.67;94.91
75298;BME280;63896;45.990;18.688;2022-11-20T00:57:12;100270.25;;;3.64;94.52
75298;BME280;63896;45.990;18.688;2022-11-20T01:00:15;100261.41;;;3.65;94.68
75298;BME280;63896;45.990;18.688;2022-11-20T01:03:19;100248.28;;;3.65;94.42
75298;BME280;63896;45.990;18.688;2022-11-20T01:06:37;100235.88;;;3.59;95.03
75298;BME280;63896;45.990;18.688;2022-11-20T01:09:39;100251.28;;;3.62;94.98
75298;BME280;63896;45.990;18.688;2022-11-20T01:12:42;100275.22;;;3.59;94.76
75298;BME280;63896;45.990;18.688;2022-11-20T01:15:45;100276.72;;;3.53;94.91
75298;BME280;63896;45.990;18.688;2022-11-20T01:18:50;100279.19;;;3.55;94.83
75298;BME280;63896;45.990;18.688;2022-11-20T01:21:54;100271.94;;;3.57;94.67
75298;BME280;63896;45.990;18.688;2022-11-20T01:24:57;100265.09;;;3.48;93.96
75298;BME280;63896;45.990;18.688;2022-11-20T01:28:00;100271.47;;;3.53;94.65
75298;BME280;63896;45.990;18.688;2022-11-20T01:31:11;100275.09;;;3.52;94.85
75298;BME280;63896;45.990;18.688;2022-11-20T01:34:17;100274.34;;;3.35;94.97
75298;BME280;63896;45.990;18.688;2022-11-20T01:37:20;100276.34;;;3.25;94.87
75298;BME280;63896;45.990;18.688;2022-11-20T01:40:23;100274.66;;;3.32;95.40
75298;BME280;63896;45.990;18.688;2022-11-20T01:43:26;100282.69;;;3.39;95.24
75298;BME280;63896;45.990;18.688;2022-11-20T01:46:32;100268.25;;;3.43;94.99
75298;BME280;63896;45.990;18.688;2022-11-20T01:49:44;100247.44;;;3.42;94.56
75298;BME280;63896;45.990;18.688;2022-11-20T01:52:59;100232.75;;;3.24;94.67
75298;BME280;63896;45.990;18.688;2022-11-20T01:56:08;100236.63;;;3.36;94.98
75298;BME280;63896;45.990;18.688;2022-11-20T01:59:15;100241.72;;;3.38;94.81
75298;BME280;63896;45.990;18.688;2022-11-20T02:02:20;100243.38;;;3.39;94.66
75298;BME280;63896;45.990;18.688;2022-11-20T02:08:56;100249.63;;;3.30;95.37
75298;BME280;63896;45.990;18.688;2022-11-20T02:11:59;100262.03;;;3.36;94.43
75298;BME280;63896;45.990;18.688;2022-11-20T02:15:02;100265.63;;;3.43;94.59
75298;BME280;63896;45.990;18.688;2022-11-20T02:18:06;100278.94;;;3.33;94.39
75298;BME280;63896;45.990;18.688;2022-11-20T02:24:45;100277.13;;;3.34;94.77
75298;BME280;63896;45.990;18.688;2022-11-20T02:27:50;100269.75;;;3.38;94.11
75298;BME280;63896;45.990;18.688;2022-11-20T02:30:53;100246.53;;;3.26;94.44
75298;BME280;63896;45.990;18.688;2022-11-20T02:33:57;100254.75;;;3.23;94.61
75298;BME280;63896;45.990;18.688;2022-11-20T02:36:59;100259.16;;;3.23;94.63
75298;BME280;63896;45.990;18.688;2022-11-20T02:40:03;100258.81;;;3.26;95.01
75298;BME280;63896;45.990;18.688;2022-11-20T02:43:06;100254.75;;;3.15;94.93
75298;BME280;63896;45.990;18.688;2022-11-20T02:46:09;100261.78;;;3.23;95.02
75298;BME280;63896;45.990;18.688;2022-11-20T02:49:12;100251.47;;;3.13;94.52
75298;BME280;63896;45.990;18.688;2022-11-20T02:52:15;100258.22;;;3.16;94.91
75298;BME280;63896;45.990;18.688;2022-11-20T02:55:18;100254.94;;;3.06;95.19
75298;BME280;63896;45.990;18.688;2022-11-20T02:58:20;100231.84;;;3.09;94.73
75298;BME280;63896;45.990;18.688;2022-11-20T03:01:25;100236.44;;;3.07;95.03
75298;BME280;63896;45.990;18.688;2022-11-20T03:04:28;100237.78;;;3.03;95.15
75298;BME280;63896;45.990;18.688;2022-11-20T03:07:31;100239.09;;;2.99;95.13
75298;BME280;63896;45.990;18.688;2022-11-20T03:10:34;100229.78;;;2.97;95.51
75298;BME280;63896;45.990;18.688;2022-11-20T03:13:36;100205.56;;;2.86;95.32
75298;BME280;63896;45.990;18.688;2022-11-20T03:16:40;100190.63;;;2.95;94.42
75298;BME280;63896;45.990;18.688;2022-11-20T03:19:42;100196.59;;;2.81;95.45
75298;BME280;63896;45.990;18.688;2022-11-20T03:22:45;100186.75;;;2.83;94.83
75298;BME280;63896;45.990;18.688;2022-11-20T03:25:48;100183.31;;;2.74;94.85
75298;BME280;63896;45.990;18.688;2022-11-20T03:28:53;100200.66;;;2.83;95.00
75298;BME280;63896;45.990;18.688;2022-11-20T03:31:57;100206.88;;;2.82;94.36
75298;BME280;63896;45.990;18.688;2022-11-20T03:35:00;100226.25;;;2.73;94.30
75298;BME280;63896;45.990;18.688;2022-11-20T03:38:03;100236.72;;;2.73;94.96
75298;BME280;63896;45.990;18.688;2022-11-20T03:41:12;100241.97;;;2.73;94.20
75298;BME280;63896;45.990;18.688;2022-11-20T03:44:14;100238.50;;;2.81;93.80
75298;BME280;63896;45.990;18.688;2022-11-20T03:47:17;100225.06;;;2.76;94.54
75298;BME280;63896;45.990;18.688;2022-11-20T03:50:20;100203.66;;;2.72;93.51
75298;BME280;63896;45.990;18.688;2022-11-20T03:53:23;100213.50;;;2.62;93.85
75298;BME280;63896;45.990;18.688;2022-11-20T03:56:28;100195.66;;;2.66;94.39
75298;BME280;63896;45.990;18.688;2022-11-20T03:59:31;100202.38;;;2.60;94.57
75298;BME280;63896;45.990;18.688;2022-11-20T04:02:34;100207.25;;;2.63;94.06
75298;BME280;63896;45.990;18.688;2022-11-20T04:05:37;100213.31;;;2.64;94.02
75298;BME280;63896;45.990;18.688;2022-11-20T04:08:40;100232.31;;;2.58;94.26
75298;BME280;63896;45.990;18.688;2022-11-20T04:11:43;100240.53;;;2.47;94.33
75298;BME280;63896;45.990;18.688;2022-11-20T04:14:46;100239.69;;;2.54;93.72
75298;BME280;63896;45.990;18.688;2022-11-20T04:17:49;100213.66;;;2.53;93.62
75298;BME280;63896;45.990;18.688;2022-11-20T04:20:52;100200.25;;;2.56;95.07
75298;BME280;63896;45.990;18.688;2022-11-20T04:23:55;100210.91;;;2.46;93.80
75298;BME280;63896;45.990;18.688;2022-11-20T04:26:59;100198.47;;;2.48;94.20
75298;BME280;63896;45.990;18.688;2022-11-20T04:30:02;100221.03;;;2.49;94.75
75298;BME280;63896;45.990;18.688;2022-11-20T04:33:05;100227.91;;;2.50;94.20
75298;BME280;63896;45.990;18.688;2022-11-20T04:36:17;100223.03;;;2.47;94.37
75298;BME280;63896;45.990;18.688;2022-11-20T04:39:20;100219.94;;;2.35;94.17
75298;BME280;63896;45.990;18.688;2022-11-20T04:42:24;100219.41;;;2.32;93.73
75298;BME280;63896;45.990;18.688;2022-11-20T04:45:33;100210.78;;;2.31;94.61
75298;BME280;63896;45.990;18.688;2022-11-20T04:48:36;100208.13;;;2.39;94.64
75298;BME280;63896;45.990;18.688;2022-11-20T04:51:38;100188.19;;;2.38;94.16
75298;BME280;63896;45.990;18.688;2022-11-20T04:54:41;100194.38;;;2.37;93.86
75298;BME280;63896;45.990;18.688;2022-11-20T04:57:44;100206.50;;;2.30;94.14
75298;BME280;63896;45.990;18.688;2022-11-20T05:00:47;100201.91;;;2.32;94.34
75298;BME280;63896;45.990;18.688;2022-11-20T05:03:50;100195.06;;;2.31;93.82
75298;BME280;63896;45.990;18.688;2022-11-20T05:06:53;100208.78;;;2.42;94.02
75298;BME280;63896;45.990;18.688;2022-11-20T05:09:56;100210.56;;;2.41;93.88
75298;BME280;63896;45.990;18.688;2022-11-20T05:12:58;100222.69;;;2.42;93.89
75298;BME280;63896;45.990;18.688;2022-11-20T05:16:07;100229.06;;;2.39;94.01
75298;BME280;63896;45.990;18.688;2022-11-20T05:19:11;100234.00;;;2.26;94.36
75298;BME280;63896;45.990;18.688;2022-11-20T05:22:13;100230.06;;;2.30;94.28
75298;BME280;63896;45.990;18.688;2022-11-20T05:25:16;100235.63;;;2.27;93.85
75298;BME280;63896;45.990;18.688;2022-11-20T05:28:19;100240.53;;;2.38;93.48
75298;BME280;63896;45.990;18.688;2022-11-20T05:31:23;100248.06;;;2.33;93.38
75298;BME280;63896;45.990;18.688;2022-11-20T05:34:29;100226.28;;;2.25;93.63
75298;BME280;63896;45.990;18.688;2022-11-20T05:37:32;100208.31;;;2.22;94.37
75298;BME280;63896;45.990;18.688;2022-11-20T05:40:35;100186.41;;;2.31;93.95
75298;BME280;63896;45.990;18.688;2022-11-20T05:43:40;100200.13;;;2.25;93.51
75298;BME280;63896;45.990;18.688;2022-11-20T05:46:43;100211.91;;;2.21;93.35
75298;BME280;63896;45.990;18.688;2022-11-20T05:49:46;100232.53;;;2.24;93.78
75298;BME280;63896;45.990;18.688;2022-11-20T05:52:49;100238.56;;;2.16;93.90
75298;BME280;63896;45.990;18.688;2022-11-20T05:55:59;100250.84;;;2.24;93.82
75298;BME280;63896;45.990;18.688;2022-11-20T05:59:02;100242.66;;;2.19;92.98
75298;BME280;63896;45.990;18.688;2022-11-20T06:02:05;100235.16;;;2.24;92.99
75298;BME280;63896;45.990;18.688;2022-11-20T06:05:08;100216.00;;;2.23;93.28
75298;BME280;63896;45.990;18.688;2022-11-20T06:08:10;100225.66;;;2.31;92.76
75298;BME280;63896;45.990;18.688;2022-11-20T06:11:15;100247.09;;;2.26;93.18
75298;BME280;63896;45.990;18.688;2022-11-20T06:14:18;100258.72;;;2.24;93.18
75298;BME280;63896;45.990;18.688;2022-11-20T06:17:21;100260.50;;;2.23;93.58
75298;BME280;63896;45.990;18.688;2022-11-20T06:20:23;100268.16;;;2.25;93.64
75298;BME280;63896;45.990;18.688;2022-11-20T06:23:28;100285.19;;;2.37;92.53
75298;BME280;63896;45.990;18.688;2022-11-20T06:26:31;100288.47;;;2.39;92.15
75298;BME280;63896;45.990;18.688;2022-11-20T06:29:34;100283.72;;;2.43;92.42
75298;BME280;63896;45.990;18.688;2022-11-20T06:32:37;100265.72;;;2.48;92.10
75298;BME280;63896;45.990;18.688;2022-11-20T06:35:40;100259.16;;;2.44;92.19
75298;BME280;63896;45.990;18.688;2022-11-20T06:38:43;100265.88;;;2.46;92.68
75298;BME280;63896;45.990;18.688;2022-11-20T06:41:45;100272.91;;;2.54;92.67
75298;BME280;63896;45.990;18.688;2022-11-20T06:44:48;100280.78;;;2.62;92.93
75298;BME280;63896;45.990;18.688;2022-11-20T06:47:51;100282.72;;;2.68;92.51
75298;BME280;63896;45.990;18.688;2022-11-20T06:50:55;100278.94;;;2.70;92.36
75298;BME280;63896;45.990;18.688;2022-11-20T06:53:58;100279.75;;;2.63;92.92
75298;BME280;63896;45.990;18.688;2022-11-20T06:57:00;100275.19;;;2.73;92.04
75298;BME280;63896;45.990;18.688;2022-11-20T07:00:04;100272.22;;;2.76;92.21
75298;BME280;63896;45.990;18.688;2022-11-20T07:03:09;100293.31;;;2.82;92.18
75298;BME280;63896;45.990;18.688;2022-11-20T07:06:12;100293.66;;;2.79;92.36
75298;BME280;63896;45.990;18.688;2022-11-20T07:09:15;100285.16;;;2.85;91.83
75298;BME280;63896;45.990;18.688;2022-11-20T07:12:18;100265.19;;;2.84;91.51
75298;BME280;63896;45.990;18.688;2022-11-20T07:15:23;100259.72;;;2.94;91.26
75298;BME280;63896;45.990;18.688;2022-11-20T07:18:26;100263.84;;;2.97;90.52
75298;BME280;63896;45.990;18.688;2022-11-20T07:21:28;100272.19;;;2.92;90.79
75298;BME280;63896;45.990;18.688;2022-11-20T07:24:31;100277.22;;;3.10;90.11
75298;BME280;63896;45.990;18.688;2022-11-20T07:27:34;100292.47;;;2.98;89.75
75298;BME280;63896;45.990;18.688;2022-11-20T07:30:37;100302.47;;;3.03;89.90
75298;BME280;63896;45.990;18.688;2022-11-20T07:33:40;100293.63;;;3.04;89.92
75298;BME280;63896;45.990;18.688;2022-11-20T07:36:43;100301.97;;;2.99;90.46
75298;BME280;63896;45.990;18.688;2022-11-20T07:39:46;100292.41;;;3.22;89.34
75298;BME280;63896;45.990;18.688;2022-11-20T07:42:49;100282.19;;;2.88;88.61
75298;BME280;63896;45.990;18.688;2022-11-20T07:45:55;100293.16;;;3.00;89.90
75298;BME280;63896;45.990;18.688;2022-11-20T07:48:58;100314.94;;;2.93;89.10
75298;BME280;63896;45.990;18.688;2022-11-20T07:52:01;100342.94;;;2.92;89.75
75298;BME280;63896;45.990;18.688;2022-11-20T07:55:08;100367.00;;;2.96;89.84
75298;BME280;63896;45.990;18.688;2022-11-20T07:58:11;100373.91;;;2.88;88.92
75298;BME280;63896;45.990;18.688;2022-11-20T08:01:14;100375.84;;;3.03;88.78
75298;BME280;63896;45.990;18.688;2022-11-20T08:04:17;100362.09;;;3.01;89.12
75298;BME280;63896;45.990;18.688;2022-11-20T08:07:20;100367.97;;;3.11;88.75
75298;BME280;63896;45.990;18.688;2022-11-20T08:10:22;100361.56;;;3.13;88.79
75298;BME280;63896;45.990;18.688;2022-11-20T08:13:25;100370.28;;;2.98;88.88
75298;BME280;63896;45.990;18.688;2022-11-20T08:16:48;100367.97;;;3.11;88.58
75298;BME280;63896;45.990;18.688;2022-11-20T08:19:51;100367.47;;;3.15;88.11
75298;BME280;63896;45.990;18.688;2022-11-20T08:22:58;100341.41;;;3.14;87.33
75298;BME280;63896;45.990;18.688;2022-11-20T08:26:02;100341.06;;;3.17;88.01
75298;BME280;63896;45.990;18.688;2022-11-20T08:29:05;100352.38;;;3.25;88.21
75298;BME280;63896;45.990;18.688;2022-11-20T08:32:08;100368.44;;;3.30;88.14
75298;BME280;63896;45.990;18.688;2022-11-20T08:35:11;100387.09;;;3.44;88.35
75298;BME280;63896;45.990;18.688;2022-11-20T08:38:13;100392.00;;;3.47;88.01
75298;BME280;63896;45.990;18.688;2022-11-20T08:41:16;100401.34;;;3.41;88.56
75298;BME280;63896;45.990;18.688;2022-11-20T08:44:33;100397.88;;;3.41;88.44
75298;BME280;63896;45.990;18.688;2022-11-20T08:47:36;100389.81;;;3.58;87.77
75298;BME280;63896;45.990;18.688;2022-11-20T08:50:38;100390.00;;;3.49;87.10
75298;BME280;63896;45.990;18.688;2022-11-20T08:53:41;100388.94;;;3.74;87.86
75298;BME280;63896;45.990;18.688;2022-11-20T08:56:45;100384.22;;;3.69;86.50
75298;BME280;63896;45.990;18.688;2022-11-20T08:59:47;100384.97;;;3.86;87.58
75298;BME280;63896;45.990;18.688;2022-11-20T09:03:07;100377.66;;;4.04;85.61
75298;BME280;63896;45.990;18.688;2022-11-20T09:06:10;100378.56;;;4.42;85.65
75298;BME280;63896;45.990;18.688;2022-11-20T09:09:13;100379.31;;;4.73;84.30
75298;BME280;63896;45.990;18.688;2022-11-20T09:12:15;100379.06;;;4.15;84.32
75298;BME280;63896;45.990;18.688;2022-11-20T09:15:19;100387.69;;;4.54;84.58
75298;BME280;63896;45.990;18.688;2022-11-20T09:18:22;100400.88;;;4.15;84.83
75298;BME280;63896;45.990;18.688;2022-11-20T09:21:25;100406.75;;;4.48;84.57
75298;BME280;63896;45.990;18.688;2022-11-20T09:24:27;100414.31;;;4.51;85.06
75298;BME280;63896;45.990;18.688;2022-11-20T09:27:30;100406.66;;;4.64;84.73
75298;BME280;63896;45.990;18.688;2022-11-20T09:30:33;100403.09;;;4.80;84.46
75298;BME280;63896;45.990;18.688;2022-11-20T09:33:36;100395.38;;;5.01;83.96
75298;BME280;63896;45.990;18.688;2022-11-20T09:36:39;100408.47;;;5.24;82.61
75298;BME280;63896;45.990;18.688;2022-11-20T09:39:41;100418.41;;;5.14;81.58
75298;BME280;63896;45.990;18.688;2022-11-20T09:42:49;100413.00;;;5.45;82.00
75298;BME280;63896;45.990;18.688;2022-11-20T09:49:19;100409.66;;;5.36;82.91
75298;BME280;63896;45.990;18.688;2022-11-20T09:53:06;100406.75;;;5.31;82.23
75298;BME280;63896;45.990;18.688;2022-11-20T09:56:14;100419.28;;;5.44;82.27
75298;BME280;63896;45.990;18.688;2022-11-20T10:06:05;100420.09;;;5.44;82.43
75298;BME280;63896;45.990;18.688;2022-11-20T10:09:36;100418.47;;;5.58;82.63
75298;BME280;63896;45.990;18.688;2022-11-20T10:26:04;100406.03;;;5.96;81.31
75298;BME280;63896;45.990;18.688;2022-11-20T10:29:19;100422.75;;;5.59;81.77
75298;BME280;63896;45.990;18.688;2022-11-20T10:32:38;100424.09;;;5.69;82.84
75298;BME280;63896;45.990;18.688;2022-11-20T10:35:52;100410.28;;;5.53;82.63
75298;BME280;63896;45.990;18.688;2022-11-20T10:39:01;100405.31;;;5.87;81.33
75298;BME280;63896;45.990;18.688;2022-11-20T10:42:17;100408.88;;;5.94;82.69
75298;BME280;63896;45.990;18.688;2022-11-20T10:48:28;100409.03;;;6.07;81.31
75298;BME280;63896;45.990;18.688;2022-11-20T11:01:50;100427.44;;;6.58;78.96
75298;BME280;63896;45.990;18.688;2022-11-20T11:04:54;100432.28;;;5.89;79.81
75298;BME280;63896;45.990;18.688;2022-11-20T11:07:57;100418.81;;;6.28;80.18
75298;BME280;63896;45.990;18.688;2022-11-20T11:11:13;100419.31;;;6.38;78.42
75298;BME280;63896;45.990;18.688;2022-11-20T11:14:19;100410.47;;;5.81;80.36
75298;BME280;63896;45.990;18.688;2022-11-20T11:17:29;100387.28;;;7.05;77.14
75298;BME280;63896;45.990;18.688;2022-11-20T11:20:50;100375.63;;;7.96;72.90
75298;BME280;63896;45.990;18.688;2022-11-20T11:24:01;100385.75;;;7.86;72.45
75298;BME280;63896;45.990;18.688;2022-11-20T11:27:24;100396.97;;;7.53;73.97
75298;BME280;63896;45.990;18.688;2022-11-20T11:30:28;100387.47;;;6.76;75.42
75298;BME280;63896;45.990;18.688;2022-11-20T11:33:32;100399.63;;;6.55;77.88
75298;BME280;63896;45.990;18.688;2022-11-20T11:36:38;100406.28;;;6.72;78.10
75298;BME280;63896;45.990;18.688;2022-11-20T11:39:42;100406.97;;;6.81;78.08
75298;BME280;63896;45.990;18.688;2022-11-20T11:42:57;100404.06;;;6.34;77.52
75298;BME280;63896;45.990;18.688;2022-11-20T11:46:00;100402.13;;;6.42;78.99
75298;BME280;63896;45.990;18.688;2022-11-20T11:52:21;100394.56;;;6.18;78.92
75298;BME280;63896;45.990;18.688;2022-11-20T11:55:39;100399.47;;;6.06;79.30
75298;BME280;63896;45.990;18.688;2022-11-20T11:58:50;100406.84;;;6.11;78.79
75298;BME280;63896;45.990;18.688;2022-11-20T12:01:59;100404.50;;;6.01;79.66
75298;BME280;63896;45.990;18.688;2022-11-20T12:05:34;100400.09;;;6.23;79.42
75298;BME280;63896;45.990;18.688;2022-11-20T12:14:49;100400.31;;;6.43;78.49
75298;BME280;63896;45.990;18.688;2022-11-20T12:17:55;100384.25;;;6.59;77.47
75298;BME280;63896;45.990;18.688;2022-11-20T12:21:20;100363.16;;;6.59;77.95
75298;BME280;63896;45.990;18.688;2022-11-20T12:31:38;100373.00;;;6.93;77.78
75298;BME280;63896;45.990;18.688;2022-11-20T13:05:21;100393.28;;;6.92;76.96
75298;BME280;63896;45.990;18.688;2022-11-20T13:08:29;100393.66;;;6.89;76.28
75298;BME280;63896;45.990;18.688;2022-11-20T13:11:50;100388.41;;;6.68;75.24
75298;BME280;63896;45.990;18.688;2022-11-20T13:18:15;100376.47;;;6.72;77.10
75298;BME280;63896;45.990;18.688;2022-11-20T13:21:34;100372.03;;;6.51;78.14
75298;BME280;63896;45.990;18.688;2022-11-20T13:24:37;100388.94;;;6.42;78.28
75298;BME280;63896;45.990;18.688;2022-11-20T13:27:47;100395.75;;;6.51;79.64
75298;BME280;63896;45.990;18.688;2022-11-20T13:30:51;100397.06;;;6.05;80.48
75298;BME280;63896;45.990;18.688;2022-11-20T13:33:55;100384.88;;;6.04;81.37
75298;BME280;63896;45.990;18.688;2022-11-20T13:36:59;100392.16;;;6.02;80.95
75298;BME280;63896;45.990;18.688;2022-11-20T13:43:37;100396.31;;;6.11;81.14
75298;BME280;63896;45.990;18.688;2022-11-20T13:46:46;100394.03;;;6.08;80.31
75298;BME280;63896;45.990;18.688;2022-11-20T13:49:51;100405.78;;;6.05;80.83
75298;BME280;63896;45.990;18.688;2022-11-20T13:53:14;100397.59;;;6.00;82.02
75298;BME280;63896;45.990;18.688;2022-11-20T13:56:43;100401.44;;;5.98;82.20
75298;BME280;63896;45.990;18.688;2022-11-20T14:00:02;100398.59;;;5.85;81.59
75298;BME280;63896;45.990;18.688;2022-11-20T14:03:23;100403.66;;;5.71;81.80
75298;BME280;63896;45.990;18.688;2022-11-20T14:06:48;100407.31;;;5.70;81.88
75298;BME280;63896;45.990;18.688;2022-11-20T14:09:53;100409.22;;;5.76;81.33
75298;BME280;63896;45.990;18.688;2022-11-20T14:12:56;100411.47;;;5.80;81.28
75298;BME280;63896;45.990;18.688;2022-11-20T14:15:59;100401.22;;;5.85;80.89
75298;BME280;63896;45.990;18.688;2022-11-20T14:19:29;100409.28;;;5.83;81.46
75298;BME280;63896;45.990;18.688;2022-11-20T14:22:33;100413.31;;;5.79;81.77
75298;BME280;63896;45.990;18.688;2022-11-20T14:25:36;100415.84;;;5.87;81.96
75298;BME280;63896;45.990;18.688;2022-11-20T14:28:40;100413.31;;;5.79;81.95
75298;BME280;63896;45.990;18.688;2022-11-20T14:31:44;100428.00;;;5.73;82.01
75298;BME280;63896;45.990;18.688;2022-11-20T14:34:59;100426.19;;;5.74;82.16
75298;BME280;63896;45.990;18.688;2022-11-20T14:38:10;100410.78;;;5.71;82.48
75298;BME280;63896;45.990;18.688;2022-11-20T14:41:23;100401.59;;;5.67;82.65
75298;BME280;63896;45.990;18.688;2022-11-20T14:44:29;100406.03;;;5.66;83.39
75298;BME280;63896;45.990;18.688;2022-11-20T14:47:34;100424.72;;;5.71;83.13
75298;BME280;63896;45.990;18.688;2022-11-20T14:50:38;100437.00;;;5.79;84.06
75298;BME280;63896;45.990;18.688;2022-11-20T14:53:41;100443.78;;;5.59;84.32
75298;BME280;63896;45.990;18.688;2022-11-20T14:56:54;100433.34;;;5.51;85.12
75298;BME280;63896;45.990;18.688;2022-11-20T15:00:20;100428.72;;;5.53;85.06
75298;BME280;63896;45.990;18.688;2022-11-20T15:03:30;100424.09;;;5.55;84.41
75298;BME280;63896;45.990;18.688;2022-11-20T15:06:33;100413.75;;;5.53;84.69
75298;BME280;63896;45.990;18.688;2022-11-20T15:09:36;100412.91;;;5.53;84.56
75298;BME280;63896;45.990;18.688;2022-11-20T15:12:51;100420.66;;;5.54;84.80
75298;BME280;63896;45.990;18.688;2022-11-20T15:15:56;100411.94;;;5.54;85.10
75298;BME280;63896;45.990;18.688;2022-11-20T15:19:00;100394.88;;;5.50;84.98
75298;BME280;63896;45.990;18.688;2022-11-20T15:22:09;100401.22;;;5.41;85.96
75298;BME280;63896;45.990;18.688;2022-11-20T15:25:17;100400.75;;;5.37;85.23
75298;BME280;63896;45.990;18.688;2022-11-20T15:28:34;100397.66;;;5.34;85.80
75298;BME280;63896;45.990;18.688;2022-11-20T15:31:39;100382.16;;;5.24;86.54
75298;BME280;63896;45.990;18.688;2022-11-20T15:34:47;100394.84;;;5.20;86.92
75298;BME280;63896;45.990;18.688;2022-11-20T15:37:50;100389.97;;;5.17;87.23
75298;BME280;63896;45.990;18.688;2022-11-20T15:40:53;100397.94;;;5.24;86.62
75298;BME280;63896;45.990;18.688;2022-11-20T15:43:55;100399.03;;;5.29;86.59
75298;BME280;63896;45.990;18.688;2022-11-20T15:46:58;100396.59;;;5.28;87.06
75298;BME280;63896;45.990;18.688;2022-11-20T15:50:02;100393.88;;;5.36;87.40
75298;BME280;63896;45.990;18.688;2022-11-20T15:53:05;100398.03;;;5.31;87.33
75298;BME280;63896;45.990;18.688;2022-11-20T15:56:11;100394.94;;;5.27;87.34
75298;BME280;63896;45.990;18.688;2022-11-20T15:59:16;100390.06;;;5.24;88.20
75298;BME280;63896;45.990;18.688;2022-11-20T16:02:18;100380.06;;;5.19;88.04
75298;BME280;63896;45.990;18.688;2022-11-20T16:05:21;100370.72;;;5.17;88.17
75298;BME280;63896;45.990;18.688;2022-11-20T16:08:25;100357.22;;;5.20;88.12
75298;BME280;63896;45.990;18.688;2022-11-20T16:11:28;100361.03;;;5.17;88.41
75298;BME280;63896;45.990;18.688;2022-11-20T16:14:31;100353.22;;;5.09;89.09
75298;BME280;63896;45.990;18.688;2022-11-20T16:17:53;100352.50;;;5.15;88.55
75298;BME280;63896;45.990;18.688;2022-11-20T16:20:56;100349.03;;;5.15;88.29
75298;BME280;63896;45.990;18.688;2022-11-20T16:24:02;100339.16;;;5.17;88.38
75298;BME280;63896;45.990;18.688;2022-11-20T16:27:05;100333.47;;;5.13;89.21
75298;BME280;63896;45.990;18.688;2022-11-20T16:30:09;100327.72;;;5.10;88.58
75298;BME280;63896;45.990;18.688;2022-11-20T16:33:14;100336.19;;;5.20;88.00
75298;BME280;63896;45.990;18.688;2022-11-20T16:36:18;100340.25;;;5.22;88.77
75298;BME280;63896;45.990;18.688;2022-11-20T16:39:21;100326.38;;;5.14;88.77
75298;BME280;63896;45.990;18.688;2022-11-20T16:42:25;100310.34;;;5.09;88.70
75298;BME280;63896;45.990;18.688;2022-11-20T16:45:29;100315.06;;;5.13;89.52
75298;BME280;63896;45.990;18.688;2022-11-20T16:48:35;100307.34;;;5.12;89.31
75298;BME280;63896;45.990;18.688;2022-11-20T16:51:38;100299.28;;;5.13;88.50
75298;BME280;63896;45.990;18.688;2022-11-20T16:54:41;100304.53;;;5.13;89.63
75298;BME280;63896;45.990;18.688;2022-11-20T16:57:44;100328.63;;;5.02;89.41
75298;BME280;63896;45.990;18.688;2022-11-20T17:00:47;100347.31;;;5.07;88.64
75298;BME280;63896;45.990;18.688;2022-11-20T17:04:04;100358.47;;;5.09;88.96
75298;BME280;63896;45.990;18.688;2022-11-20T17:07:07;100375.41;;;5.07;88.83
75298;BME280;63896;45.990;18.688;2022-11-20T17:10:11;100403.81;;;5.11;88.38
75298;BME280;63896;45.990;18.688;2022-11-20T17:13:14;100423.19;;;5.10;88.24
75298;BME280;63896;45.990;18.688;2022-11-20T17:16:20;100432.31;;;5.22;87.99
75298;BME280;63896;45.990;18.688;2022-11-20T17:19:23;100431.25;;;5.32;87.54
75298;BME280;63896;45.990;18.688;2022-11-20T17:22:26;100426.53;;;5.42;87.20
75298;BME280;63896;45.990;18.688;2022-11-20T17:25:31;100417.44;;;5.29;87.90
75298;BME280;63896;45.990;18.688;2022-11-20T17:28:36;100418.06;;;5.17;89.21
75298;BME280;63896;45.990;18.688;2022-11-20T17:31:41;100413.13;;;5.14;88.67
75298;BME280;63896;45.990;18.688;2022-11-20T17:34:44;100413.88;;;5.08;89.29
75298;BME280;63896;45.990;18.688;2022-11-20T17:37:47;100411.53;;;5.13;89.72
75298;BME280;63896;45.990;18.688;2022-11-20T17:40:50;100403.34;;;5.08;89.16
75298;BME280;63896;45.990;18.688;2022-11-20T17:43:57;100407.78;;;5.07;89.61
75298;BME280;63896;45.990;18.688;2022-11-20T17:47:01;100410.72;;;5.12;89.69
75298;BME280;63896;45.990;18.688;2022-11-20T17:50:04;100417.03;;;5.03;89.76